MSC Flavia — 3FBD7 — position and weather

sailwx.info

Track history (hours):
 
Tides and Currents Weather Stations Pressure Air Temp Water Temp Dewpoint Dewpoint Depression Visibility Wind Speed Wind Dir Waves Ship Positions

MSC Flavia

Last reported at 2014-Nov-20 03:04 UTC. Time now 2014-Nov-23 01:06 UTC.
Position N 01°12' E 103°39'.

Length 366 m; draft 13.9 m.

Type: Ship (hazmat cat A). MMSI: 373004000.

Date/timePositionNaut miles runAvg speedWind from/ knotsBaromVisibWave heightAir tempDewpointWater temp
2014-Nov-20 03:04N 01°12' E 103°39'611.4
2014-Nov-20 02:33N 01°15' E 103°43'3 2.5
2014-Nov-20 01:31N 01°17' E 103°46'0 0.0
2014-Nov-20 00:31N 01°17' E 103°46'0 0.0
2014-Nov-19 23:31N 01°17' E 103°46'0 0.0
2014-Nov-19 22:31N 01°17' E 103°46'0 0.0
2014-Nov-19 21:31N 01°17' E 103°46'0 0.0
2014-Nov-19 20:31N 01°17' E 103°46'0 0.0
2014-Nov-19 19:31N 01°17' E 103°46'0 0.1
2014-Nov-19 18:28N 01°17' E 103°45'0 0.0
2014-Nov-19 17:25N 01°17' E 103°45'0 0.1
2014-Nov-19 16:31N 01°17' E 103°46'0 0.0
2014-Nov-19 15:31N 01°17' E 103°46'0 0.0
2014-Nov-19 14:31N 01°17' E 103°46'0 0.0
2014-Nov-19 13:31N 01°17' E 103°46'0 0.0
2014-Nov-19 12:31N 01°17' E 103°46'0 0.1
2014-Nov-19 11:31N 01°17' E 103°45'0 0.0
2014-Nov-19 10:31N 01°17' E 103°45'0 0.1
2014-Nov-19 09:31N 01°17' E 103°46'0 0.0
2014-Nov-19 08:31N 01°17' E 103°46'0 0.0
2014-Nov-19 07:31N 01°17' E 103°46'0 0.0
2014-Nov-19 06:16N 01°17' E 103°46'0 0.0
2014-Nov-19 05:25N 01°17' E 103°46'0 0.0
2014-Nov-19 04:31N 01°17' E 103°46'0 0.0
2014-Nov-19 03:25N 01°17' E 103°46'0 0.0
2014-Nov-19 02:31N 01°17' E 103°46'0 0.0
2014-Nov-19 01:31N 01°17' E 103°46'0 0.0
2014-Nov-19 00:31N 01°17' E 103°46'0 0.0
2014-Nov-18 23:31N 01°17' E 103°46'0 0.0
2014-Nov-18 22:31N 01°17' E 103°46'0 0.0
2014-Nov-18 21:31N 01°17' E 103°46'0 0.0
2014-Nov-18 20:31N 01°17' E 103°46'0 0.0
2014-Nov-18 19:31N 01°17' E 103°46'0 0.0
2014-Nov-18 18:33N 01°17' E 103°46'1 1.3
2014-Nov-18 17:34N 01°15' E 103°46'6 6.4
2014-Nov-18 16:33N 01°13' E 103°52'6 5.8
2014-Nov-18 15:31N 01°15' E 103°58'8 8.7
2014-Nov-18 14:33N 01°17' E 104°06'11 9.8
2014-Nov-18 13:28N 01°18' E 104°17'  
2014-Nov-13 22:24N 30°31' E 122°25'1314.7
2014-Nov-13 21:33N 30°34' E 122°11'6 3.0
2014-Nov-13 19:32N 30°37' E 122°05'0 0.0
2014-Nov-13 18:26N 30°37' E 122°05'0 0.0
2014-Nov-13 17:23N 30°37' E 122°05'0 0.0
2014-Nov-13 16:32N 30°37' E 122°05'0 0.0
2014-Nov-13 15:32N 30°37' E 122°05'0 0.0
2014-Nov-13 14:23N 30°37' E 122°05'0 0.0
2014-Nov-13 12:20N 30°37' E 122°05'0 0.0
2014-Nov-13 11:17N 30°37' E 122°05'0 0.0
2014-Nov-13 10:29N 30°37' E 122°05'0 0.0
2014-Nov-13 09:26N 30°37' E 122°05'0 0.0
2014-Nov-13 08:33N 30°37' E 122°05'8 7.6
2014-Nov-13 07:33N 30°33' E 122°12'1212.2
2014-Nov-13 06:32N 30°32' E 122°27'24 0.9
2014-Nov-12 03:18N 30°24' E 122°52'3215.4
2014-Nov-12 01:13N 29°52' E 122°52'1319.1
2014-Nov-12 00:33N 29°45' E 122°40'1615.9
2014-Nov-11 23:33N 29°43' E 122°22'1312.7
2014-Nov-11 22:33N 29°52' E 122°12'8 7.9
2014-Nov-11 21:33N 29°54' E 122°03'0 0.1
2014-Nov-11 19:22N 29°53' E 122°03'0 0.0
2014-Nov-11 18:28N 29°53' E 122°03'0 0.0
2014-Nov-11 17:22N 29°53' E 122°03'0 0.0
2014-Nov-11 16:04N 29°53' E 122°03'0 0.0
2014-Nov-11 14:16N 29°53' E 122°03'0 0.0
2014-Nov-11 13:28N 29°53' E 122°03'0 0.0
2014-Nov-11 12:25N 29°53' E 122°03'0 0.0
2014-Nov-11 10:22N 29°53' E 122°03'0 0.0
2014-Nov-11 09:22N 29°53' E 122°03'0 0.0
2014-Nov-11 08:28N 29°53' E 122°03'0 0.0
2014-Nov-11 07:22N 29°53' E 122°03'0 0.0
2014-Nov-11 06:22N 29°53' E 122°03'0 0.0
2014-Nov-11 05:28N 29°53' E 122°03'0 0.0
2014-Nov-11 04:22N 29°53' E 122°03'0 0.0
2014-Nov-11 03:28N 29°53' E 122°03'0 0.0
2014-Nov-11 01:28N 29°53' E 122°03'0 0.0
2014-Nov-11 00:16N 29°53' E 122°03'0 0.0
2014-Nov-10 21:33N 29°54' E 122°03'3 3.4
2014-Nov-10 20:33N 29°55' E 122°06'1211.6
2014-Nov-10 19:33N 29°47' E 122°16'9 9.2
2014-Nov-10 18:33N 29°44' E 122°26'1010.4
2014-Nov-10 17:34N 29°46' E 122°37'1312.7
2014-Nov-10 16:33N 29°51' E 122°51'  
Track history (hours):
 
Tides and Currents Weather Stations Pressure Air Temp Water Temp Dewpoint Dewpoint Depression Visibility Wind Speed Wind Dir Waves Ship Positions

MSC Flavia

Last reported at 2014-Nov-20 03:04 UTC. Time now 2014-Nov-23 01:06 UTC.
Position N 01°12' E 103°39'.

Length 366 m; draft 13.9 m.

Type: Ship (hazmat cat A). MMSI: 373004000.

Date/timePositionNaut miles runAvg speedWind from/ knotsBaromVisibWave heightAir tempDewpointWater temp
2014-Nov-20 03:04N 01°12' E 103°39'611.4
2014-Nov-20 02:33N 01°15' E 103°43'3 2.5
2014-Nov-20 01:31N 01°17' E 103°46'0 0.0
2014-Nov-20 00:31N 01°17' E 103°46'0 0.0
2014-Nov-19 23:31N 01°17' E 103°46'0 0.0
2014-Nov-19 22:31N 01°17' E 103°46'0 0.0
2014-Nov-19 21:31N 01°17' E 103°46'0 0.0
2014-Nov-19 20:31N 01°17' E 103°46'0 0.0
2014-Nov-19 19:31N 01°17' E 103°46'0 0.1
2014-Nov-19 18:28N 01°17' E 103°45'0 0.0
2014-Nov-19 17:25N 01°17' E 103°45'0 0.1
2014-Nov-19 16:31N 01°17' E 103°46'0 0.0
2014-Nov-19 15:31N 01°17' E 103°46'0 0.0
2014-Nov-19 14:31N 01°17' E 103°46'0 0.0
2014-Nov-19 13:31N 01°17' E 103°46'0 0.0
2014-Nov-19 12:31N 01°17' E 103°46'0 0.1
2014-Nov-19 11:31N 01°17' E 103°45'0 0.0
2014-Nov-19 10:31N 01°17' E 103°45'0 0.1
2014-Nov-19 09:31N 01°17' E 103°46'0 0.0
2014-Nov-19 08:31N 01°17' E 103°46'0 0.0
2014-Nov-19 07:31N 01°17' E 103°46'0 0.0
2014-Nov-19 06:16N 01°17' E 103°46'0 0.0
2014-Nov-19 05:25N 01°17' E 103°46'0 0.0
2014-Nov-19 04:31N 01°17' E 103°46'0 0.0
2014-Nov-19 03:25N 01°17' E 103°46'0 0.0
2014-Nov-19 02:31N 01°17' E 103°46'0 0.0
2014-Nov-19 01:31N 01°17' E 103°46'0 0.0
2014-Nov-19 00:31N 01°17' E 103°46'0 0.0
2014-Nov-18 23:31N 01°17' E 103°46'0 0.0
2014-Nov-18 22:31N 01°17' E 103°46'0 0.0
2014-Nov-18 21:31N 01°17' E 103°46'0 0.0
2014-Nov-18 20:31N 01°17' E 103°46'0 0.0
2014-Nov-18 19:31N 01°17' E 103°46'0 0.0
2014-Nov-18 18:33N 01°17' E 103°46'1 1.3
2014-Nov-18 17:34N 01°15' E 103°46'6 6.4
2014-Nov-18 16:33N 01°13' E 103°52'6 5.8
2014-Nov-18 15:31N 01°15' E 103°58'8 8.7
2014-Nov-18 14:33N 01°17' E 104°06'11 9.8
2014-Nov-18 13:28N 01°18' E 104°17'  
2014-Nov-13 22:24N 30°31' E 122°25'1314.7
2014-Nov-13 21:33N 30°34' E 122°11'6 3.0
2014-Nov-13 19:32N 30°37' E 122°05'0 0.0
2014-Nov-13 18:26N 30°37' E 122°05'0 0.0
2014-Nov-13 17:23N 30°37' E 122°05'0 0.0
2014-Nov-13 16:32N 30°37' E 122°05'0 0.0
2014-Nov-13 15:32N 30°37' E 122°05'0 0.0
2014-Nov-13 14:23N 30°37' E 122°05'0 0.0
2014-Nov-13 12:20N 30°37' E 122°05'0 0.0
2014-Nov-13 11:17N 30°37' E 122°05'0 0.0
2014-Nov-13 10:29N 30°37' E 122°05'0 0.0
2014-Nov-13 09:26N 30°37' E 122°05'0 0.0
2014-Nov-13 08:33N 30°37' E 122°05'8 7.6
2014-Nov-13 07:33N 30°33' E 122°12'1212.2
2014-Nov-13 06:32N 30°32' E 122°27'24 0.9
2014-Nov-12 03:18N 30°24' E 122°52'3215.4
2014-Nov-12 01:13N 29°52' E 122°52'1319.1
2014-Nov-12 00:33N 29°45' E 122°40'1615.9
2014-Nov-11 23:33N 29°43' E 122°22'1312.7
2014-Nov-11 22:33N 29°52' E 122°12'8 7.9
2014-Nov-11 21:33N 29°54' E 122°03'0 0.1
2014-Nov-11 19:22N 29°53' E 122°03'0 0.0
2014-Nov-11 18:28N 29°53' E 122°03'0 0.0
2014-Nov-11 17:22N 29°53' E 122°03'0 0.0
2014-Nov-11 16:04N 29°53' E 122°03'0 0.0
2014-Nov-11 14:16N 29°53' E 122°03'0 0.0
2014-Nov-11 13:28N 29°53' E 122°03'0 0.0
2014-Nov-11 12:25N 29°53' E 122°03'0 0.0
2014-Nov-11 10:22N 29°53' E 122°03'0 0.0
2014-Nov-11 09:22N 29°53' E 122°03'0 0.0
2014-Nov-11 08:28N 29°53' E 122°03'0 0.0
2014-Nov-11 07:22N 29°53' E 122°03'0 0.0
2014-Nov-11 06:22N 29°53' E 122°03'0 0.0
2014-Nov-11 05:28N 29°53' E 122°03'0 0.0
2014-Nov-11 04:22N 29°53' E 122°03'0 0.0
2014-Nov-11 03:28N 29°53' E 122°03'0 0.0
2014-Nov-11 01:28N 29°53' E 122°03'0 0.0
2014-Nov-11 00:16N 29°53' E 122°03'0 0.0
2014-Nov-10 21:33N 29°54' E 122°03'3 3.4
2014-Nov-10 20:33N 29°55' E 122°06'1211.6
2014-Nov-10 19:33N 29°47' E 122°16'9 9.2
2014-Nov-10 18:33N 29°44' E 122°26'1010.4
2014-Nov-10 17:34N 29°46' E 122°37'1312.7
2014-Nov-10 16:33N 29°51' E 122°51'  

Dump ship's entire track history